sensor_id;sensor_type;location;lat;lon;timestamp;temperature;humidity
23251;DHT22;11794;49.730;10.088;2024-02-28T00:00:58;5.90;99.90
23251;DHT22;11794;49.730;10.088;2024-02-28T00:03:23;5.80;99.90
23251;DHT22;11794;49.730;10.088;2024-02-28T00:05:49;5.80;99.90
23251;DHT22;11794;49.730;10.088;2024-02-28T00:08:15;5.80;99.90
23251;DHT22;11794;49.730;10.088;2024-02-28T00:10:42;5.80;99.90
23251;DHT22;11794;49.730;10.088;2024-02-28T00:13:07;5.70;99.90
23251;DHT22;11794;49.730;10.088;2024-02-28T00:15:33;5.70;99.90
23251;DHT22;11794;49.730;10.088;2024-02-28T00:17:58;5.60;99.90
23251;DHT22;11794;49.730;10.088;2024-02-28T00:20:24;5.60;99.90
23251;DHT22;11794;49.730;10.088;2024-02-28T00:22:52;5.60;99.90
23251;DHT22;11794;49.730;10.088;2024-02-28T00:25:18;5.60;99.90
23251;DHT22;11794;49.730;10.088;2024-02-28T00:27:43;5.50;99.90
23251;DHT22;11794;49.730;10.088;2024-02-28T00:30:09;5.50;99.90
23251;DHT22;11794;49.730;10.088;2024-02-28T00:32:35;5.50;99.90
23251;DHT22;11794;49.730;10.088;2024-02-28T00:35:00;5.50;99.90
23251;DHT22;11794;49.730;10.088;2024-02-28T00:37:26;5.50;99.90
23251;DHT22;11794;49.730;10.088;2024-02-28T00:39:51;5.50;99.90
23251;DHT22;11794;49.730;10.088;2024-02-28T00:42:17;5.50;99.90
23251;DHT22;11794;49.730;10.088;2024-02-28T00:44:42;5.50;99.90
23251;DHT22;11794;49.730;10.088;2024-02-28T00:47:09;5.50;99.90
23251;DHT22;11794;49.730;10.088;2024-02-28T00:49:35;5.50;99.90
23251;DHT22;11794;49.730;10.088;2024-02-28T00:52:00;5.50;99.90
23251;DHT22;11794;49.730;10.088;2024-02-28T00:54:26;5.50;99.90
23251;DHT22;11794;49.730;10.088;2024-02-28T00:56:51;5.50;99.90
23251;DHT22;11794;49.730;10.088;2024-02-28T00:59:17;5.50;99.90
23251;DHT22;11794;49.730;10.088;2024-02-28T01:01:42;5.40;99.90
23251;DHT22;11794;49.730;10.088;2024-02-28T01:04:08;5.40;99.90
23251;DHT22;11794;49.730;10.088;2024-02-28T01:06:33;5.40;99.90
23251;DHT22;11794;49.730;10.088;2024-02-28T01:08:59;5.40;99.90
23251;DHT22;11794;49.730;10.088;2024-02-28T01:11:25;5.40;99.90
23251;DHT22;11794;49.730;10.088;2024-02-28T01:13:50;5.40;99.90
23251;DHT22;11794;49.730;10.088;2024-02-28T01:16:16;5.40;99.90
23251;DHT22;11794;49.730;10.088;2024-02-28T01:18:42;5.40;99.90
23251;DHT22;11794;49.730;10.088;2024-02-28T01:21:07;5.40;99.90
23251;DHT22;11794;49.730;10.088;2024-02-28T01:23:33;5.40;99.90
23251;DHT22;11794;49.730;10.088;2024-02-28T01:25:58;5.40;99.90
23251;DHT22;11794;49.730;10.088;2024-02-28T01:28:24;5.40;99.90
23251;DHT22;11794;49.730;10.088;2024-02-28T01:30:50;5.40;99.90
23251;DHT22;11794;49.730;10.088;2024-02-28T01:33:15;5.40;99.90
23251;DHT22;11794;49.730;10.088;2024-02-28T01:35:41;5.40;99.90
23251;DHT22;11794;49.730;10.088;2024-02-28T01:38:06;5.40;99.90
23251;DHT22;11794;49.730;10.088;2024-02-28T01:40:32;5.40;99.90
23251;DHT22;11794;49.730;10.088;2024-02-28T01:43:11;5.40;99.90
23251;DHT22;11794;49.730;10.088;2024-02-28T01:45:37;5.40;99.90
23251;DHT22;11794;49.730;10.088;2024-02-28T01:48:03;5.40;99.90
23251;DHT22;11794;49.730;10.088;2024-02-28T01:50:31;5.40;99.90
23251;DHT22;11794;49.730;10.088;2024-02-28T01:52:57;5.40;99.90
23251;DHT22;11794;49.730;10.088;2024-02-28T01:55:23;5.40;99.90
23251;DHT22;11794;49.730;10.088;2024-02-28T01:57:48;5.40;99.90
23251;DHT22;11794;49.730;10.088;2024-02-28T02:00:15;5.40;99.90
23251;DHT22;11794;49.730;10.088;2024-02-28T02:02:43;5.40;99.90
23251;DHT22;11794;49.730;10.088;2024-02-28T02:05:09;5.40;99.90
23251;DHT22;11794;49.730;10.088;2024-02-28T02:07:34;5.40;99.90
23251;DHT22;11794;49.730;10.088;2024-02-28T02:10:01;5.40;99.90
23251;DHT22;11794;49.730;10.088;2024-02-28T02:12:26;5.40;99.90
23251;DHT22;11794;49.730;10.088;2024-02-28T02:14:52;5.40;99.90
23251;DHT22;11794;49.730;10.088;2024-02-28T02:17:17;5.30;99.90
23251;DHT22;11794;49.730;10.088;2024-02-28T02:19:43;5.40;99.90
23251;DHT22;11794;49.730;10.088;2024-02-28T02:22:10;5.30;99.90
23251;DHT22;11794;49.730;10.088;2024-02-28T02:24:38;5.30;99.90
23251;DHT22;11794;49.730;10.088;2024-02-28T02:27:04;5.30;99.90
23251;DHT22;11794;49.730;10.088;2024-02-28T02:29:30;5.30;99.90
23251;DHT22;11794;49.730;10.088;2024-02-28T02:31:56;5.30;99.90
23251;DHT22;11794;49.730;10.088;2024-02-28T02:34:21;5.30;99.90
23251;DHT22;11794;49.730;10.088;2024-02-28T02:36:47;5.20;99.90
23251;DHT22;11794;49.730;10.088;2024-02-28T02:39:12;5.20;99.90
23251;DHT22;11794;49.730;10.088;2024-02-28T02:41:38;5.20;99.90
23251;DHT22;11794;49.730;10.088;2024-02-28T02:44:03;5.20;99.90
23251;DHT22;11794;49.730;10.088;2024-02-28T02:46:29;5.20;99.90
23251;DHT22;11794;49.730;10.088;2024-02-28T02:48:55;5.20;99.90
23251;DHT22;11794;49.730;10.088;2024-02-28T02:51:21;5.20;99.90
23251;DHT22;11794;49.730;10.088;2024-02-28T02:53:46;5.20;99.90
23251;DHT22;11794;49.730;10.088;2024-02-28T02:56:12;5.20;99.90
23251;DHT22;11794;49.730;10.088;2024-02-28T02:58:37;5.20;99.90
23251;DHT22;11794;49.730;10.088;2024-02-28T03:01:03;5.30;99.90
23251;DHT22;11794;49.730;10.088;2024-02-28T03:03:28;5.30;99.90
23251;DHT22;11794;49.730;10.088;2024-02-28T03:05:54;5.30;99.90
23251;DHT22;11794;49.730;10.088;2024-02-28T03:08:19;5.30;99.90
23251;DHT22;11794;49.730;10.088;2024-02-28T03:10:45;5.30;99.90
23251;DHT22;11794;49.730;10.088;2024-02-28T03:13:10;5.20;99.90
23251;DHT22;11794;49.730;10.088;2024-02-28T03:15:36;5.20;99.90
23251;DHT22;11794;49.730;10.088;2024-02-28T03:18:01;5.20;99.90
23251;DHT22;11794;49.730;10.088;2024-02-28T03:20:27;5.20;99.90
23251;DHT22;11794;49.730;10.088;2024-02-28T03:22:53;5.20;99.90
23251;DHT22;11794;49.730;10.088;2024-02-28T03:25:18;5.20;99.90
23251;DHT22;11794;49.730;10.088;2024-02-28T03:27:43;5.20;99.90
23251;DHT22;11794;49.730;10.088;2024-02-28T03:30:09;5.20;99.90
23251;DHT22;11794;49.730;10.088;2024-02-28T03:32:35;5.20;99.90
23251;DHT22;11794;49.730;10.088;2024-02-28T03:35:00;5.20;99.90
23251;DHT22;11794;49.730;10.088;2024-02-28T03:37:26;5.20;99.90
23251;DHT22;11794;49.730;10.088;2024-02-28T03:39:51;5.20;99.90
23251;DHT22;11794;49.730;10.088;2024-02-28T03:42:17;5.20;99.90
23251;DHT22;11794;49.730;10.088;2024-02-28T03:44:42;5.20;99.90
23251;DHT22;11794;49.730;10.088;2024-02-28T03:47:08;5.20;99.90
23251;DHT22;11794;49.730;10.088;2024-02-28T03:49:34;5.20;99.90
23251;DHT22;11794;49.730;10.088;2024-02-28T03:51:59;5.10;99.90
23251;DHT22;11794;49.730;10.088;2024-02-28T03:54:27;5.10;99.90
23251;DHT22;11794;49.730;10.088;2024-02-28T03:56:53;5.10;99.90
23251;DHT22;11794;49.730;10.088;2024-02-28T03:59:18;5.10;99.90
23251;DHT22;11794;49.730;10.088;2024-02-28T04:01:44;5.10;99.90
23251;DHT22;11794;49.730;10.088;2024-02-28T04:04:09;5.10;99.90
23251;DHT22;11794;49.730;10.088;2024-02-28T04:06:35;5.10;99.90
23251;DHT22;11794;49.730;10.088;2024-02-28T04:09:00;5.10;99.90
23251;DHT22;11794;49.730;10.088;2024-02-28T04:11:28;5.10;99.90
23251;DHT22;11794;49.730;10.088;2024-02-28T04:13:53;5.10;99.90
23251;DHT22;11794;49.730;10.088;2024-02-28T04:16:19;5.10;99.90
23251;DHT22;11794;49.730;10.088;2024-02-28T04:18:44;5.10;99.90
23251;DHT22;11794;49.730;10.088;2024-02-28T04:21:10;5.10;99.90
23251;DHT22;11794;49.730;10.088;2024-02-28T04:23:35;5.10;99.90
23251;DHT22;11794;49.730;10.088;2024-02-28T04:26:01;5.10;99.90
23251;DHT22;11794;49.730;10.088;2024-02-28T04:28:27;5.10;99.90
23251;DHT22;11794;49.730;10.088;2024-02-28T04:30:53;5.10;99.90
23251;DHT22;11794;49.730;10.088;2024-02-28T04:33:18;5.10;99.90
23251;DHT22;11794;49.730;10.088;2024-02-28T04:35:44;5.10;99.90
23251;DHT22;11794;49.730;10.088;2024-02-28T04:38:09;5.20;99.90
23251;DHT22;11794;49.730;10.088;2024-02-28T04:40:35;5.10;99.90
23251;DHT22;11794;49.730;10.088;2024-02-28T04:43:00;5.20;99.90
23251;DHT22;11794;49.730;10.088;2024-02-28T04:45:26;5.10;99.90
23251;DHT22;11794;49.730;10.088;2024-02-28T04:47:52;5.10;99.90
23251;DHT22;11794;49.730;10.088;2024-02-28T04:50:19;5.10;99.90
23251;DHT22;11794;49.730;10.088;2024-02-28T04:52:44;5.20;99.90
23251;DHT22;11794;49.730;10.088;2024-02-28T04:55:10;5.20;99.90
23251;DHT22;11794;49.730;10.088;2024-02-28T04:57:36;5.10;99.90
23251;DHT22;11794;49.730;10.088;2024-02-28T05:00:02;5.20;99.90
23251;DHT22;11794;49.730;10.088;2024-02-28T05:02:29;5.20;99.90
23251;DHT22;11794;49.730;10.088;2024-02-28T05:04:54;5.20;99.90
23251;DHT22;11794;49.730;10.088;2024-02-28T05:07:20;5.20;99.90
23251;DHT22;11794;49.730;10.088;2024-02-28T05:09:45;5.20;99.90
23251;DHT22;11794;49.730;10.088;2024-02-28T05:12:11;5.20;99.90
23251;DHT22;11794;49.730;10.088;2024-02-28T05:14:39;5.20;99.90
23251;DHT22;11794;49.730;10.088;2024-02-28T05:17:04;5.20;99.90
23251;DHT22;11794;49.730;10.088;2024-02-28T05:19:30;5.20;99.90
23251;DHT22;11794;49.730;10.088;2024-02-28T05:21:56;5.20;99.90
23251;DHT22;11794;49.730;10.088;2024-02-28T05:24:22;5.10;99.90
23251;DHT22;11794;49.730;10.088;2024-02-28T05:26:47;5.10;99.90
23251;DHT22;11794;49.730;10.088;2024-02-28T05:29:13;5.20;99.90
23251;DHT22;11794;49.730;10.088;2024-02-28T05:31:38;5.20;99.90
23251;DHT22;11794;49.730;10.088;2024-02-28T05:34:04;5.20;99.90
23251;DHT22;11794;49.730;10.088;2024-02-28T05:36:30;5.20;99.90
23251;DHT22;11794;49.730;10.088;2024-02-28T05:38:57;5.20;99.90
23251;DHT22;11794;49.730;10.088;2024-02-28T05:41:23;5.20;99.90
23251;DHT22;11794;49.730;10.088;2024-02-28T05:43:49;5.20;99.90
23251;DHT22;11794;49.730;10.088;2024-02-28T05:46:15;5.20;99.90
23251;DHT22;11794;49.730;10.088;2024-02-28T05:48:42;5.20;99.90
23251;DHT22;11794;49.730;10.088;2024-02-28T05:51:07;5.20;99.90
23251;DHT22;11794;49.730;10.088;2024-02-28T05:53:33;5.20;99.90
23251;DHT22;11794;49.730;10.088;2024-02-28T05:56:05;5.20;99.90
23251;DHT22;11794;49.730;10.088;2024-02-28T05:58:31;5.20;99.90
23251;DHT22;11794;49.730;10.088;2024-02-28T06:00:57;5.20;99.90
23251;DHT22;11794;49.730;10.088;2024-02-28T06:03:22;5.20;99.90
23251;DHT22;11794;49.730;10.088;2024-02-28T06:05:48;5.10;99.90
23251;DHT22;11794;49.730;10.088;2024-02-28T06:08:13;5.10;99.90
23251;DHT22;11794;49.730;10.088;2024-02-28T06:10:39;5.10;99.90
23251;DHT22;11794;49.730;10.088;2024-02-28T06:13:04;5.10;99.90
23251;DHT22;11794;49.730;10.088;2024-02-28T06:15:30;5.20;99.90
23251;DHT22;11794;49.730;10.088;2024-02-28T06:17:57;5.10;99.90
23251;DHT22;11794;49.730;10.088;2024-02-28T06:20:22;5.20;99.90
23251;DHT22;11794;49.730;10.088;2024-02-28T06:22:48;5.20;99.90
23251;DHT22;11794;49.730;10.088;2024-02-28T06:25:13;5.20;99.90
23251;DHT22;11794;49.730;10.088;2024-02-28T06:27:44;5.20;99.90
23251;DHT22;11794;49.730;10.088;2024-02-28T06:30:11;5.20;99.90
23251;DHT22;11794;49.730;10.088;2024-02-28T06:32:38;5.30;99.90
23251;DHT22;11794;49.730;10.088;2024-02-28T06:35:04;5.30;99.90
23251;DHT22;11794;49.730;10.088;2024-02-28T06:37:29;5.20;99.90
23251;DHT22;11794;49.730;10.088;2024-02-28T06:39:55;5.30;99.90
23251;DHT22;11794;49.730;10.088;2024-02-28T06:42:20;5.30;99.90
23251;DHT22;11794;49.730;10.088;2024-02-28T06:44:46;5.40;99.90
23251;DHT22;11794;49.730;10.088;2024-02-28T06:47:11;5.40;99.90
23251;DHT22;11794;49.730;10.088;2024-02-28T06:49:37;5.40;99.90
23251;DHT22;11794;49.730;10.088;2024-02-28T06:52:02;5.40;99.90
23251;DHT22;11794;49.730;10.088;2024-02-28T06:54:28;5.40;99.90
23251;DHT22;11794;49.730;10.088;2024-02-28T06:56:54;5.40;99.90
23251;DHT22;11794;49.730;10.088;2024-02-28T06:59:20;5.40;99.90
23251;DHT22;11794;49.730;10.088;2024-02-28T07:01:46;5.40;99.90
23251;DHT22;11794;49.730;10.088;2024-02-28T07:04:11;5.50;99.90
23251;DHT22;11794;49.730;10.088;2024-02-28T07:06:37;5.50;99.90
23251;DHT22;11794;49.730;10.088;2024-02-28T07:09:02;5.50;99.90
23251;DHT22;11794;49.730;10.088;2024-02-28T07:11:28;5.40;99.90
23251;DHT22;11794;49.730;10.088;2024-02-28T07:13:53;5.40;99.90
23251;DHT22;11794;49.730;10.088;2024-02-28T07:16:19;5.40;99.90
23251;DHT22;11794;49.730;10.088;2024-02-28T07:18:44;5.50;99.90
23251;DHT22;11794;49.730;10.088;2024-02-28T07:21:10;5.50;99.90
23251;DHT22;11794;49.730;10.088;2024-02-28T07:23:39;5.50;99.90
23251;DHT22;11794;49.730;10.088;2024-02-28T07:26:06;5.50;99.90
23251;DHT22;11794;49.730;10.088;2024-02-28T07:28:32;5.40;99.90
23251;DHT22;11794;49.730;10.088;2024-02-28T07:30:57;5.50;99.90
23251;DHT22;11794;49.730;10.088;2024-02-28T07:33:23;5.50;99.90
23251;DHT22;11794;49.730;10.088;2024-02-28T07:35:51;5.50;99.90
23251;DHT22;11794;49.730;10.088;2024-02-28T07:38:17;5.50;99.90
23251;DHT22;11794;49.730;10.088;2024-02-28T07:40:45;5.50;99.90
23251;DHT22;11794;49.730;10.088;2024-02-28T07:43:11;5.50;99.90
23251;DHT22;11794;49.730;10.088;2024-02-28T07:45:36;5.50;99.90
23251;DHT22;11794;49.730;10.088;2024-02-28T07:48:02;5.50;99.90
23251;DHT22;11794;49.730;10.088;2024-02-28T07:50:28;5.50;99.90
23251;DHT22;11794;49.730;10.088;2024-02-28T07:52:56;5.60;99.90
23251;DHT22;11794;49.730;10.088;2024-02-28T07:55:22;5.70;99.90
23251;DHT22;11794;49.730;10.088;2024-02-28T07:57:51;5.80;99.90
23251;DHT22;11794;49.730;10.088;2024-02-28T08:00:16;5.70;99.90
23251;DHT22;11794;49.730;10.088;2024-02-28T08:02:44;5.60;99.90
23251;DHT22;11794;49.730;10.088;2024-02-28T08:05:09;5.60;99.90
23251;DHT22;11794;49.730;10.088;2024-02-28T08:07:35;5.70;99.90
23251;DHT22;11794;49.730;10.088;2024-02-28T08:10:01;5.70;99.90
23251;DHT22;11794;49.730;10.088;2024-02-28T08:12:27;5.70;99.90
23251;DHT22;11794;49.730;10.088;2024-02-28T08:14:52;5.80;99.90
23251;DHT22;11794;49.730;10.088;2024-02-28T08:17:18;5.80;99.90
23251;DHT22;11794;49.730;10.088;2024-02-28T08:19:43;5.80;99.90
23251;DHT22;11794;49.730;10.088;2024-02-28T08:22:09;5.80;99.90
23251;DHT22;11794;49.730;10.088;2024-02-28T08:24:36;5.80;99.90
23251;DHT22;11794;49.730;10.088;2024-02-28T08:27:02;5.90;99.90
23251;DHT22;11794;49.730;10.088;2024-02-28T08:29:27;5.90;99.90
23251;DHT22;11794;49.730;10.088;2024-02-28T08:31:53;5.90;99.90
23251;DHT22;11794;49.730;10.088;2024-02-28T08:34:18;5.90;99.90
23251;DHT22;11794;49.730;10.088;2024-02-28T08:36:44;6.00;99.90
23251;DHT22;11794;49.730;10.088;2024-02-28T08:39:09;6.00;99.90
23251;DHT22;11794;49.730;10.088;2024-02-28T08:41:35;6.00;99.90
23251;DHT22;11794;49.730;10.088;2024-02-28T08:44:01;6.00;99.90
23251;DHT22;11794;49.730;10.088;2024-02-28T08:46:26;6.10;99.90
23251;DHT22;11794;49.730;10.088;2024-02-28T08:48:52;6.20;99.90
23251;DHT22;11794;49.730;10.088;2024-02-28T08:51:17;6.20;99.90
23251;DHT22;11794;49.730;10.088;2024-02-28T08:53:43;6.30;99.90
23251;DHT22;11794;49.730;10.088;2024-02-28T08:56:08;6.30;99.90
23251;DHT22;11794;49.730;10.088;2024-02-28T08:58:34;6.50;99.90
23251;DHT22;11794;49.730;10.088;2024-02-28T09:00:59;6.60;99.90
23251;DHT22;11794;49.730;10.088;2024-02-28T09:03:25;6.80;99.90
23251;DHT22;11794;49.730;10.088;2024-02-28T09:05:51;7.00;99.90
23251;DHT22;11794;49.730;10.088;2024-02-28T09:08:16;7.10;99.90
23251;DHT22;11794;49.730;10.088;2024-02-28T09:10:42;7.10;99.90
23251;DHT22;11794;49.730;10.088;2024-02-28T09:13:07;7.10;99.90
23251;DHT22;11794;49.730;10.088;2024-02-28T09:15:33;7.10;99.90
23251;DHT22;11794;49.730;10.088;2024-02-28T09:17:59;7.20;99.90
23251;DHT22;11794;49.730;10.088;2024-02-28T09:20:26;7.40;99.90
23251;DHT22;11794;49.730;10.088;2024-02-28T09:22:51;7.40;99.90
23251;DHT22;11794;49.730;10.088;2024-02-28T09:25:17;7.40;99.90
23251;DHT22;11794;49.730;10.088;2024-02-28T09:27:43;7.40;99.90
23251;DHT22;11794;49.730;10.088;2024-02-28T09:30:09;7.40;99.90
23251;DHT22;11794;49.730;10.088;2024-02-28T09:32:35;7.50;99.90
23251;DHT22;11794;49.730;10.088;2024-02-28T09:35:03;7.30;99.90
23251;DHT22;11794;49.730;10.088;2024-02-28T09:37:29;7.30;99.90
23251;DHT22;11794;49.730;10.088;2024-02-28T09:39:55;7.50;99.90
23251;DHT22;11794;49.730;10.088;2024-02-28T09:42:20;7.60;99.90
23251;DHT22;11794;49.730;10.088;2024-02-28T09:44:46;8.10;99.90
23251;DHT22;11794;49.730;10.088;2024-02-28T09:47:11;8.20;99.90
23251;DHT22;11794;49.730;10.088;2024-02-28T09:49:37;8.00;99.90
23251;DHT22;11794;49.730;10.088;2024-02-28T09:52:03;7.80;99.90
23251;DHT22;11794;49.730;10.088;2024-02-28T09:54:29;7.80;99.90
23251;DHT22;11794;49.730;10.088;2024-02-28T09:56:55;7.80;99.90
23251;DHT22;11794;49.730;10.088;2024-02-28T09:59:23;7.80;99.90
23251;DHT22;11794;49.730;10.088;2024-02-28T10:01:57;7.80;99.90
23251;DHT22;11794;49.730;10.088;2024-02-28T10:04:26;8.00;99.90
23251;DHT22;11794;49.730;10.088;2024-02-28T10:06:53;8.50;99.90
23251;DHT22;11794;49.730;10.088;2024-02-28T10:09:18;8.80;99.90
23251;DHT22;11794;49.730;10.088;2024-02-28T10:11:45;9.00;99.90
23251;DHT22;11794;49.730;10.088;2024-02-28T10:14:11;9.20;99.90
23251;DHT22;11794;49.730;10.088;2024-02-28T10:16:37;9.50;99.90
23251;DHT22;11794;49.730;10.088;2024-02-28T10:19:05;9.50;99.90
23251;DHT22;11794;49.730;10.088;2024-02-28T10:21:30;9.30;99.90
23251;DHT22;11794;49.730;10.088;2024-02-28T10:23:58;9.70;99.90
23251;DHT22;11794;49.730;10.088;2024-02-28T10:26:24;11.10;99.90
23251;DHT22;11794;49.730;10.088;2024-02-28T10:28:51;12.10;99.90
23251;DHT22;11794;49.730;10.088;2024-02-28T10:31:17;12.60;99.90
23251;DHT22;11794;49.730;10.088;2024-02-28T10:33:43;12.60;99.90
23251;DHT22;11794;49.730;10.088;2024-02-28T10:36:09;12.20;99.90
23251;DHT22;11794;49.730;10.088;2024-02-28T10:38:34;11.90;99.90
23251;DHT22;11794;49.730;10.088;2024-02-28T10:41:02;12.50;99.90
23251;DHT22;11794;49.730;10.088;2024-02-28T10:43:29;12.80;99.90
23251;DHT22;11794;49.730;10.088;2024-02-28T10:45:57;13.70;99.90
23251;DHT22;11794;49.730;10.088;2024-02-28T10:48:24;14.70;99.90
23251;DHT22;11794;49.730;10.088;2024-02-28T10:50:50;15.30;99.90
23251;DHT22;11794;49.730;10.088;2024-02-28T10:53:31;14.70;99.90
23251;DHT22;11794;49.730;10.088;2024-02-28T10:56:02;13.00;99.90
23251;DHT22;11794;49.730;10.088;2024-02-28T10:58:36;11.80;99.90
23251;DHT22;11794;49.730;10.088;2024-02-28T11:01:05;11.90;99.90
23251;DHT22;11794;49.730;10.088;2024-02-28T11:03:31;13.00;99.90
23251;DHT22;11794;49.730;10.088;2024-02-28T11:05:57;14.10;99.90
23251;DHT22;11794;49.730;10.088;2024-02-28T11:08:24;15.10;99.90
23251;DHT22;11794;49.730;10.088;2024-02-28T11:13:22;16.80;99.90
23251;DHT22;11794;49.730;10.088;2024-02-28T11:15:48;17.50;99.90
23251;DHT22;11794;49.730;10.088;2024-02-28T11:18:14;17.50;99.90
23251;DHT22;11794;49.730;10.088;2024-02-28T11:20:39;17.50;99.90
23251;DHT22;11794;49.730;10.088;2024-02-28T11:23:09;17.80;99.90
23251;DHT22;11794;49.730;10.088;2024-02-28T11:25:35;17.90;99.90
23251;DHT22;11794;49.730;10.088;2024-02-28T11:28:00;17.90;99.90
23251;DHT22;11794;49.730;10.088;2024-02-28T11:30:26;18.40;99.90
23251;DHT22;11794;49.730;10.088;2024-02-28T11:32:52;18.50;99.70
23251;DHT22;11794;49.730;10.088;2024-02-28T11:35:19;18.90;98.90
23251;DHT22;11794;49.730;10.088;2024-02-28T11:37:49;18.90;98.10
23251;DHT22;11794;49.730;10.088;2024-02-28T11:40:15;18.40;98.30
23251;DHT22;11794;49.730;10.088;2024-02-28T11:42:41;17.70;98.70
23251;DHT22;11794;49.730;10.088;2024-02-28T11:45:10;17.80;98.30
23251;DHT22;11794;49.730;10.088;2024-02-28T11:47:35;18.00;97.80
23251;DHT22;11794;49.730;10.088;2024-02-28T11:50:02;18.20;97.80
23251;DHT22;11794;49.730;10.088;2024-02-28T11:52:30;18.20;97.80
23251;DHT22;11794;49.730;10.088;2024-02-28T11:54:55;18.40;96.90
23251;DHT22;11794;49.730;10.088;2024-02-28T11:57:21;18.70;96.40
23251;DHT22;11794;49.730;10.088;2024-02-28T11:59:47;19.10;96.80
23251;DHT22;11794;49.730;10.088;2024-02-28T12:02:14;19.30;96.50
23251;DHT22;11794;49.730;10.088;2024-02-28T12:04:41;19.70;96.70
23251;DHT22;11794;49.730;10.088;2024-02-28T12:07:08;19.60;96.10
23251;DHT22;11794;49.730;10.088;2024-02-28T12:09:33;19.20;96.90
23251;DHT22;11794;49.730;10.088;2024-02-28T12:12:02;19.60;96.00
23251;DHT22;11794;49.730;10.088;2024-02-28T12:14:31;19.60;94.20
23251;DHT22;11794;49.730;10.088;2024-02-28T12:16:58;19.70;95.00
23251;DHT22;11794;49.730;10.088;2024-02-28T12:19:24;19.80;95.10
23251;DHT22;11794;49.730;10.088;2024-02-28T12:21:49;20.20;94.20
23251;DHT22;11794;49.730;10.088;2024-02-28T12:24:15;20.30;93.80
23251;DHT22;11794;49.730;10.088;2024-02-28T12:26:41;20.70;93.40
23251;DHT22;11794;49.730;10.088;2024-02-28T12:29:07;20.60;93.50
23251;DHT22;11794;49.730;10.088;2024-02-28T12:31:32;21.00;93.60
23251;DHT22;11794;49.730;10.088;2024-02-28T12:33:58;21.20;93.30
23251;DHT22;11794;49.730;10.088;2024-02-28T12:36:24;21.40;92.30
23251;DHT22;11794;49.730;10.088;2024-02-28T12:38:50;21.60;92.20
23251;DHT22;11794;49.730;10.088;2024-02-28T12:41:16;21.90;92.40
23251;DHT22;11794;49.730;10.088;2024-02-28T12:43:42;22.40;90.90
23251;DHT22;11794;49.730;10.088;2024-02-28T12:46:08;22.60;90.10
23251;DHT22;11794;49.730;10.088;2024-02-28T12:48:37;22.50;90.60
23251;DHT22;11794;49.730;10.088;2024-02-28T12:51:03;22.50;87.70
23251;DHT22;11794;49.730;10.088;2024-02-28T12:53:30;22.70;88.90
23251;DHT22;11794;49.730;10.088;2024-02-28T12:55:56;22.50;86.50
23251;DHT22;11794;49.730;10.088;2024-02-28T12:58:21;22.50;85.30
23251;DHT22;11794;49.730;10.088;2024-02-28T13:00:48;22.70;86.70
23251;DHT22;11794;49.730;10.088;2024-02-28T13:03:14;22.40;88.60
23251;DHT22;11794;49.730;10.088;2024-02-28T13:05:41;22.30;87.50
23251;DHT22;11794;49.730;10.088;2024-02-28T13:08:07;23.00;85.60
23251;DHT22;11794;49.730;10.088;2024-02-28T13:10:32;23.20;84.70
23251;DHT22;11794;49.730;10.088;2024-02-28T13:13:01;23.10;84.10
23251;DHT22;11794;49.730;10.088;2024-02-28T13:15:27;22.90;83.90
23251;DHT22;11794;49.730;10.088;2024-02-28T13:17:53;22.60;83.70
23251;DHT22;11794;49.730;10.088;2024-02-28T13:20:18;23.50;83.90
23251;DHT22;11794;49.730;10.088;2024-02-28T13:22:44;23.60;81.60
23251;DHT22;11794;49.730;10.088;2024-02-28T13:25:11;23.50;81.80
23251;DHT22;11794;49.730;10.088;2024-02-28T13:27:36;23.90;81.20
23251;DHT22;11794;49.730;10.088;2024-02-28T13:30:03;24.10;80.20
23251;DHT22;11794;49.730;10.088;2024-02-28T13:32:28;24.20;79.70
23251;DHT22;11794;49.730;10.088;2024-02-28T13:34:54;24.00;79.90
23251;DHT22;11794;49.730;10.088;2024-02-28T13:37:19;23.90;79.30
23251;DHT22;11794;49.730;10.088;2024-02-28T13:39:45;24.10;78.00
23251;DHT22;11794;49.730;10.088;2024-02-28T13:42:11;23.90;79.00
23251;DHT22;11794;49.730;10.088;2024-02-28T13:44:36;24.00;77.90
23251;DHT22;11794;49.730;10.088;2024-02-28T13:47:03;23.60;75.90
23251;DHT22;11794;49.730;10.088;2024-02-28T13:49:29;23.90;73.40
23251;DHT22;11794;49.730;10.088;2024-02-28T13:51:55;23.80;75.00
23251;DHT22;11794;49.730;10.088;2024-02-28T13:54:20;23.70;73.40
23251;DHT22;11794;49.730;10.088;2024-02-28T13:56:46;23.50;75.50
23251;DHT22;11794;49.730;10.088;2024-02-28T13:59:12;23.30;75.40
23251;DHT22;11794;49.730;10.088;2024-02-28T14:01:38;23.30;73.40
23251;DHT22;11794;49.730;10.088;2024-02-28T14:04:03;22.80;75.00
23251;DHT22;11794;49.730;10.088;2024-02-28T14:06:29;22.20;76.10
23251;DHT22;11794;49.730;10.088;2024-02-28T14:08:55;22.40;75.20
23251;DHT22;11794;49.730;10.088;2024-02-28T14:11:22;22.50;74.90
23251;DHT22;11794;49.730;10.088;2024-02-28T14:13:48;22.60;74.30
23251;DHT22;11794;49.730;10.088;2024-02-28T14:16:13;23.10;74.00
23251;DHT22;11794;49.730;10.088;2024-02-28T14:18:39;23.80;73.00
23251;DHT22;11794;49.730;10.088;2024-02-28T14:21:05;24.50;71.40
23251;DHT22;11794;49.730;10.088;2024-02-28T14:23:30;24.70;71.10
23251;DHT22;11794;49.730;10.088;2024-02-28T14:25:56;23.80;73.10
23251;DHT22;11794;49.730;10.088;2024-02-28T14:28:22;24.00;73.10
23251;DHT22;11794;49.730;10.088;2024-02-28T14:30:47;23.80;72.00
23251;DHT22;11794;49.730;10.088;2024-02-28T14:33:14;23.90;71.80
23251;DHT22;11794;49.730;10.088;2024-02-28T14:35:40;23.40;73.10
23251;DHT22;11794;49.730;10.088;2024-02-28T14:38:06;23.00;72.00
23251;DHT22;11794;49.730;10.088;2024-02-28T14:40:32;22.20;71.30
23251;DHT22;11794;49.730;10.088;2024-02-28T14:42:58;22.60;72.80
23251;DHT22;11794;49.730;10.088;2024-02-28T14:45:23;23.00;71.10
23251;DHT22;11794;49.730;10.088;2024-02-28T14:47:51;23.40;69.80
23251;DHT22;11794;49.730;10.088;2024-02-28T14:50:17;23.70;68.20
23251;DHT22;11794;49.730;10.088;2024-02-28T14:52:42;23.60;69.10
23251;DHT22;11794;49.730;10.088;2024-02-28T14:55:09;23.40;69.20
23251;DHT22;11794;49.730;10.088;2024-02-28T14:57:38;23.30;71.00
23251;DHT22;11794;49.730;10.088;2024-02-28T15:00:06;22.90;70.60
23251;DHT22;11794;49.730;10.088;2024-02-28T15:02:34;22.70;70.70
23251;DHT22;11794;49.730;10.088;2024-02-28T15:05:00;22.40;72.40
23251;DHT22;11794;49.730;10.088;2024-02-28T15:07:25;22.30;71.70
23251;DHT22;11794;49.730;10.088;2024-02-28T15:09:51;22.00;71.50
23251;DHT22;11794;49.730;10.088;2024-02-28T15:12:16;21.60;72.70
23251;DHT22;11794;49.730;10.088;2024-02-28T15:14:42;21.40;72.30
23251;DHT22;11794;49.730;10.088;2024-02-28T15:17:07;21.10;72.80
23251;DHT22;11794;49.730;10.088;2024-02-28T15:19:33;21.30;72.20